Terminal Aerodrome Forecast
Issued by NWS

Home | Current Version | Previous Version | Text Only | Print | Product List | Glossary On
Versions: 1 2 3 4 5 6 7 8 9 10 11 12 13 14 15 16 17 18 19 20 21
000
FTUS41 KPBZ 292025 AAB
TAFLBE
TAF AMD
KLBE 292025Z 2920/3018 10014G26KT P6SM FEW018 BKN025
     FM300000 13015G25KT P6SM -SHRA OVC025
     FM300500 13016G27KT P6SM VCSH OVC035=

USA.gov is the U.S. government's official web portal to all federal, state and local government web resources and services.